BAW674 EGLL-LGPZ
Flight info
| Callsign | BAW674 |
|---|---|
| Flight time | N/A |
| Altitude | 35000 |
| Route | DET1J DET L6 DVR UL9 KONAN UL607 REMBA DCT LIRSU DCT ULNOK DCT VIBOM DCT NOMBO DCT RIDAR DCT RADIZ DCT SABAD DCT NERRA DCT RODON DCT PITAS UN732 KRK A14 MALED MALED1A |
| Aircraft | A320/M-SDE3FGIJ1KRWXY/SB1 |
Departure
| Time | 2026-05-05 21:33 |
|---|---|
| Airport | London Heathrow Airport (EGLL) |
Arrival
| Time | N/A |
|---|---|
| Airport | Aktion National Airport (LGPZ) |
| Time | Latitude | Longitude | Altitude | Speed | Heading |
|---|---|---|---|---|---|
| 2026-05-05 21:08 | 51.47271 | -0.48581 | 85 ft | 0 kts | 270° |
| 2026-05-05 21:15 | 51.47271 | -0.48562 | 85 ft | 3 kts | 266° |
| 2026-05-05 21:15 | 51.47273 | -0.48530 | 86 ft | 3 kts | 255° |
| 2026-05-05 21:16 | 51.47280 | -0.48500 | 90 ft | 3 kts | 235° |
| 2026-05-05 21:16 | 51.47292 | -0.48480 | 90 ft | 3 kts | 195° |
| 2026-05-05 21:16 | 51.47300 | -0.48477 | 89 ft | 0 kts | 178° |
| 2026-05-05 21:26 | 51.47299 | -0.48477 | 85 ft | 1 kts | 178° |
| 2026-05-05 21:26 | 51.47288 | -0.48476 | 88 ft | 2 kts | 178° |
| 2026-05-05 21:26 | 51.47265 | -0.48475 | 85 ft | 4 kts | 178° |
| 2026-05-05 21:26 | 51.47231 | -0.48473 | 85 ft | 6 kts | 178° |
| 2026-05-05 21:27 | 51.47203 | -0.48471 | 86 ft | 7 kts | 178° |
| 2026-05-05 21:27 | 51.47152 | -0.48468 | 86 ft | 8 kts | 178° |
| 2026-05-05 21:27 | 51.47090 | -0.48464 | 85 ft | 10 kts | 178° |
| 2026-05-05 21:27 | 51.47018 | -0.48459 | 85 ft | 11 kts | 178° |
| 2026-05-05 21:28 | 51.46936 | -0.48455 | 85 ft | 13 kts | 179° |
| 2026-05-05 21:28 | 51.46845 | -0.48460 | 85 ft | 14 kts | 182° |
| 2026-05-05 21:28 | 51.46799 | -0.48463 | 86 ft | 0 kts | 183° |
| 2026-05-05 21:28 | 51.46792 | -0.48464 | 90 ft | 2 kts | 183° |
| 2026-05-05 21:29 | 51.46775 | -0.48466 | 89 ft | 3 kts | 183° |
| 2026-05-05 21:29 | 51.46746 | -0.48468 | 85 ft | 5 kts | 183° |
| 2026-05-05 21:29 | 51.46733 | -0.48469 | 85 ft | 1 kts | 181° |
| 2026-05-05 21:29 | 51.46718 | -0.48470 | 85 ft | 6 kts | 181° |
| 2026-05-05 21:30 | 51.46670 | -0.48471 | 87 ft | 6 kts | 179° |
| 2026-05-05 21:30 | 51.46642 | -0.48469 | 88 ft | 3 kts | 177° |
| 2026-05-05 21:30 | 51.46625 | -0.48468 | 89 ft | 2 kts | 177° |
| 2026-05-05 21:30 | 51.46609 | -0.48467 | 89 ft | 2 kts | 177° |
| 2026-05-05 21:31 | 51.46590 | -0.48469 | 89 ft | 3 kts | 184° |
| 2026-05-05 21:31 | 51.46546 | -0.48473 | 89 ft | 10 kts | 182° |
| 2026-05-05 21:31 | 51.46472 | -0.48456 | 89 ft | 11 kts | 123° |
| 2026-05-05 21:31 | 51.46478 | -0.48364 | 88 ft | 7 kts | 83° |
| 2026-05-05 21:32 | 51.46478 | -0.48276 | 87 ft | 10 kts | 90° |
| 2026-05-05 21:32 | 51.46488 | -0.47943 | 83 ft | 61 kts | 90° |
| 2026-05-05 21:32 | 51.46487 | -0.46909 | 89 ft | 120 kts | 89° |
| 2026-05-05 21:32 | 51.46501 | -0.45306 | 90 ft | 165 kts | 87° |
| 2026-05-05 21:33 | 51.46539 | -0.43427 | 627 ft | 168 kts | 87° |
| 2026-05-05 21:33 | 51.46447 | -0.41570 | 1341 ft | 171 kts | 108° |
| 2026-05-05 21:33 | 51.45782 | -0.39876 | 1791 ft | 186 kts | 126° |
| 2026-05-05 21:33 | 51.45016 | -0.38103 | 2069 ft | 202 kts | 121° |
| 2026-05-05 21:34 | 51.44256 | -0.36137 | 2365 ft | 220 kts | 119° |
| 2026-05-05 21:34 | 51.43580 | -0.33807 | 2722 ft | 237 kts | 104° |
| 2026-05-05 21:34 | 51.43168 | -0.31184 | 3234 ft | 251 kts | 102° |
| 2026-05-05 21:34 | 51.42764 | -0.28418 | 3994 ft | 257 kts | 101° |
| 2026-05-05 21:35 | 51.42369 | -0.25599 | 4793 ft | 262 kts | 100° |
| 2026-05-05 21:35 | 51.41979 | -0.22721 | 5551 ft | 266 kts | 100° |
| 2026-05-05 21:35 | 51.41585 | -0.19777 | 5930 ft | 272 kts | 100° |
| 2026-05-05 21:35 | 51.41186 | -0.16799 | 6615 ft | 274 kts | 100° |
| 2026-05-05 21:36 | 51.40782 | -0.13807 | 7359 ft | 277 kts | 100° |
| 2026-05-05 21:36 | 51.40368 | -0.10752 | 8068 ft | 282 kts | 100° |
| 2026-05-05 21:36 | 51.39944 | -0.07661 | 8763 ft | 287 kts | 100° |
| 2026-05-05 21:36 | 51.39511 | -0.04544 | 9470 ft | 292 kts | 100° |
| 2026-05-05 21:37 | 51.39063 | -0.01350 | 10130 ft | 298 kts | 101° |
| 2026-05-05 21:37 | 51.38591 | 0.02014 | 10321 ft | 320 kts | 101° |
| 2026-05-05 21:37 | 51.38095 | 0.05590 | 10458 ft | 341 kts | 101° |
| 2026-05-05 21:37 | 51.37572 | 0.09361 | 10884 ft | 351 kts | 101° |
| 2026-05-05 21:38 | 51.37037 | 0.13193 | 11466 ft | 355 kts | 101° |
| 2026-05-05 21:38 | 51.36492 | 0.17068 | 12067 ft | 358 kts | 101° |
| 2026-05-05 21:38 | 51.35941 | 0.20974 | 12654 ft | 361 kts | 102° |
| 2026-05-05 21:38 | 51.35387 | 0.24906 | 13249 ft | 365 kts | 102° |
| 2026-05-05 21:39 | 51.34824 | 0.28886 | 13842 ft | 368 kts | 102° |
| 2026-05-05 21:39 | 51.34255 | 0.32895 | 14373 ft | 371 kts | 102° |
| 2026-05-05 21:39 | 51.33676 | 0.36938 | 14904 ft | 374 kts | 102° |
| 2026-05-05 21:39 | 51.33095 | 0.40994 | 15467 ft | 375 kts | 102° |
| 2026-05-05 21:40 | 51.32510 | 0.45064 | 16136 ft | 376 kts | 102° |
| 2026-05-05 21:40 | 51.31922 | 0.49154 | 16671 ft | 378 kts | 102° |
| 2026-05-05 21:40 | 51.31338 | 0.53200 | 17229 ft | 379 kts | 102° |
| 2026-05-05 21:40 | 51.30742 | 0.57315 | 17754 ft | 381 kts | 102° |
| 2026-05-05 21:41 | 51.30123 | 0.61473 | 18278 ft | 384 kts | 104° |
| 2026-05-05 21:41 | 51.29428 | 0.65607 | 18743 ft | 387 kts | 105° |
| 2026-05-05 21:41 | 51.28671 | 0.69755 | 19173 ft | 390 kts | 105° |
| 2026-05-05 21:41 | 51.27881 | 0.73921 | 19605 ft | 393 kts | 106° |
| 2026-05-05 21:42 | 51.27086 | 0.78058 | 20025 ft | 396 kts | 106° |
| 2026-05-05 21:42 | 51.26279 | 0.82288 | 20458 ft | 399 kts | 105° |
| 2026-05-05 21:42 | 51.25476 | 0.86558 | 20863 ft | 402 kts | 105° |
| 2026-05-05 21:42 | 51.24679 | 0.90844 | 21255 ft | 405 kts | 105° |
| 2026-05-05 21:43 | 51.23878 | 0.95186 | 21619 ft | 407 kts | 105° |
| 2026-05-05 21:43 | 51.23079 | 0.99529 | 22089 ft | 408 kts | 105° |
| 2026-05-05 21:43 | 51.22273 | 1.03876 | 22526 ft | 410 kts | 106° |
| 2026-05-05 21:43 | 51.21469 | 1.08201 | 22933 ft | 412 kts | 106° |
| 2026-05-05 21:44 | 51.20649 | 1.12592 | 23344 ft | 414 kts | 106° |
| 2026-05-05 21:44 | 51.19822 | 1.17005 | 23705 ft | 416 kts | 106° |
| 2026-05-05 21:44 | 51.18995 | 1.21415 | 24008 ft | 419 kts | 106° |
| 2026-05-05 21:44 | 51.18156 | 1.25877 | 24346 ft | 421 kts | 106° |
| 2026-05-05 21:45 | 51.17318 | 1.30319 | 24672 ft | 422 kts | 107° |
| 2026-05-05 21:45 | 51.16506 | 1.34846 | 24977 ft | 424 kts | 102° |
| 2026-05-05 21:45 | 51.16084 | 1.39511 | 25281 ft | 426 kts | 94° |
| 2026-05-05 21:45 | 51.15873 | 1.44243 | 25594 ft | 428 kts | 94° |
| 2026-05-05 21:46 | 51.15655 | 1.48983 | 25933 ft | 429 kts | 95° |
| 2026-05-05 21:46 | 51.15427 | 1.53735 | 26261 ft | 431 kts | 95° |
| 2026-05-05 21:46 | 51.15192 | 1.58500 | 26593 ft | 432 kts | 95° |
| 2026-05-05 21:46 | 51.14955 | 1.63233 | 26896 ft | 435 kts | 96° |
| 2026-05-05 21:47 | 51.14714 | 1.68046 | 27226 ft | 436 kts | 96° |
| 2026-05-05 21:47 | 51.14500 | 1.72307 | 27544 ft | 436 kts | 96° |
| 2026-05-05 21:47 | 51.14264 | 1.76980 | 27962 ft | 435 kts | 96° |
| 2026-05-05 21:47 | 51.14021 | 1.81779 | 28431 ft | 433 kts | 96° |
| 2026-05-05 21:48 | 51.13777 | 1.86561 | 28895 ft | 432 kts | 95° |
| 2026-05-05 21:48 | 51.13530 | 1.91332 | 29330 ft | 431 kts | 95° |
| 2026-05-05 21:48 | 51.13282 | 1.96061 | 29861 ft | 427 kts | 97° |
| 2026-05-05 21:48 | 51.13039 | 2.00719 | 30305 ft | 425 kts | 96° |
| 2026-05-05 21:49 | 51.12796 | 2.05404 | 30682 ft | 424 kts | 96° |
| 2026-05-05 21:49 | 51.12553 | 2.10075 | 30898 ft | 423 kts | 97° |
| 2026-05-05 21:49 | 51.12049 | 2.19530 | 30944 ft | 432 kts | 97° |
| 2026-05-05 21:50 | 51.11523 | 2.29074 | 30929 ft | 434 kts | 97° |
| 2026-05-05 21:50 | 51.10987 | 2.38649 | 30923 ft | 434 kts | 97° |
| 2026-05-05 21:51 | 51.10449 | 2.48161 | 30923 ft | 434 kts | 97° |
| 2026-05-05 21:51 | 51.09906 | 2.57724 | 30922 ft | 434 kts | 97° |
| 2026-05-05 21:52 | 51.08272 | 2.71795 | 30918 ft | 431 kts | 108° |
| 2026-05-05 21:53 | 51.06614 | 2.80944 | 30922 ft | 431 kts | 108° |
| 2026-05-05 21:53 | 51.04958 | 2.90101 | 30916 ft | 430 kts | 108° |
| 2026-05-05 21:54 | 51.03299 | 2.99166 | 30929 ft | 429 kts | 108° |
| 2026-05-05 21:54 | 51.01630 | 3.08269 | 30923 ft | 428 kts | 108° |
| 2026-05-05 21:55 | 50.99953 | 3.17366 | 30917 ft | 428 kts | 108° |
| 2026-05-05 21:55 | 50.98278 | 3.26378 | 30908 ft | 428 kts | 108° |
| 2026-05-05 21:56 | 50.96591 | 3.35423 | 30900 ft | 427 kts | 108° |
| 2026-05-05 21:56 | 50.94897 | 3.44469 | 30890 ft | 427 kts | 108° |
| 2026-05-05 21:57 | 50.93201 | 3.53494 | 30886 ft | 427 kts | 108° |
| 2026-05-05 21:57 | 50.91495 | 3.62473 | 30886 ft | 427 kts | 109° |
| 2026-05-05 21:58 | 50.89765 | 3.71542 | 30889 ft | 427 kts | 109° |
| 2026-05-05 21:58 | 50.88039 | 3.80472 | 30882 ft | 427 kts | 109° |
| 2026-05-05 21:59 | 50.86293 | 3.89451 | 30879 ft | 426 kts | 109° |
| 2026-05-05 21:59 | 50.84545 | 3.98421 | 30876 ft | 426 kts | 109° |
| 2026-05-05 22:00 | 50.82786 | 4.07381 | 30877 ft | 426 kts | 109° |
| 2026-05-05 22:00 | 50.81025 | 4.16329 | 30886 ft | 426 kts | 109° |
| 2026-05-05 22:01 | 50.79264 | 4.25277 | 30884 ft | 426 kts | 109° |
| 2026-05-05 22:01 | 50.77504 | 4.34170 | 30887 ft | 426 kts | 109° |
| 2026-05-05 22:02 | 50.75726 | 4.43103 | 30891 ft | 425 kts | 109° |
| 2026-05-05 22:02 | 50.73936 | 4.52012 | 30886 ft | 425 kts | 109° |
| 2026-05-05 22:03 | 50.72146 | 4.60876 | 30883 ft | 426 kts | 109° |
| 2026-05-05 22:03 | 50.70403 | 4.69812 | 30882 ft | 425 kts | 108° |
| 2026-05-05 22:04 | 50.68693 | 4.78745 | 30889 ft | 424 kts | 108° |
| 2026-05-05 22:04 | 50.67100 | 4.86956 | 30882 ft | 424 kts | 109° |
| 2026-05-05 22:05 | 50.64953 | 4.95661 | 31091 ft | 429 kts | 117° |
| 2026-05-05 22:05 | 50.63673 | 4.99895 | 31396 ft | 429 kts | 117° |
| 2026-05-05 22:05 | 50.62391 | 5.04151 | 31747 ft | 429 kts | 117° |
| 2026-05-05 22:05 | 50.61113 | 5.08398 | 32114 ft | 428 kts | 117° |
| 2026-05-05 22:06 | 50.59855 | 5.12582 | 32472 ft | 427 kts | 117° |
| 2026-05-05 22:06 | 50.58585 | 5.16791 | 32909 ft | 425 kts | 117° |
| 2026-05-05 22:06 | 50.57320 | 5.20970 | 33328 ft | 423 kts | 117° |
| 2026-05-05 22:06 | 50.56055 | 5.25141 | 33733 ft | 421 kts | 117° |
| 2026-05-05 22:07 | 50.54790 | 5.29302 | 34075 ft | 420 kts | 117° |
| 2026-05-05 22:07 | 50.53527 | 5.33457 | 34342 ft | 421 kts | 117° |
| 2026-05-05 22:07 | 50.52259 | 5.37620 | 34577 ft | 422 kts | 117° |
| 2026-05-05 22:07 | 50.50985 | 5.41793 | 34772 ft | 424 kts | 117° |
| 2026-05-05 22:08 | 50.49701 | 5.45982 | 34856 ft | 426 kts | 117° |
| 2026-05-05 22:08 | 50.47127 | 5.54369 | 34860 ft | 426 kts | 117° |
| 2026-05-05 22:09 | 50.44567 | 5.62709 | 34855 ft | 426 kts | 117° |
| 2026-05-05 22:09 | 50.41982 | 5.71086 | 34855 ft | 426 kts | 118° |
| 2026-05-05 22:10 | 50.39383 | 5.79461 | 34850 ft | 426 kts | 118° |
| 2026-05-05 22:10 | 50.36795 | 5.87773 | 34850 ft | 426 kts | 118° |
| 2026-05-05 22:11 | 50.34186 | 5.96144 | 34842 ft | 427 kts | 118° |
| 2026-05-05 22:11 | 50.32013 | 6.03088 | 34832 ft | 427 kts | 118° |
| 2026-05-05 22:12 | 50.29388 | 6.11445 | 34816 ft | 428 kts | 118° |
| 2026-05-05 22:12 | 50.26750 | 6.19822 | 34820 ft | 429 kts | 118° |
| 2026-05-05 22:13 | 50.24128 | 6.28127 | 34805 ft | 429 kts | 118° |
| 2026-05-05 22:13 | 50.21469 | 6.36503 | 34799 ft | 430 kts | 118° |
| 2026-05-05 22:14 | 50.18863 | 6.44954 | 34781 ft | 432 kts | 112° |
| 2026-05-05 22:14 | 50.17272 | 6.53969 | 34793 ft | 434 kts | 106° |
| 2026-05-05 22:15 | 50.15779 | 6.63103 | 34802 ft | 434 kts | 106° |
| 2026-05-05 22:15 | 50.14268 | 6.72235 | 34807 ft | 434 kts | 106° |
| 2026-05-05 22:16 | 50.12754 | 6.81359 | 34817 ft | 434 kts | 106° |
| 2026-05-05 22:16 | 50.11254 | 6.90387 | 34806 ft | 434 kts | 107° |
| 2026-05-05 22:17 | 50.09740 | 6.99474 | 34805 ft | 435 kts | 107° |
| 2026-05-05 22:17 | 50.08214 | 7.08599 | 34808 ft | 435 kts | 107° |
| 2026-05-05 22:18 | 50.06681 | 7.17710 | 34811 ft | 435 kts | 107° |
| 2026-05-05 22:18 | 50.05136 | 7.26826 | 34812 ft | 435 kts | 107° |
| 2026-05-05 22:19 | 50.03583 | 7.35937 | 34796 ft | 436 kts | 107° |
| 2026-05-05 22:19 | 50.02023 | 7.44999 | 34799 ft | 437 kts | 107° |
| 2026-05-05 22:20 | 50.00446 | 7.54138 | 34814 ft | 437 kts | 107° |
| 2026-05-05 22:20 | 49.98860 | 7.63289 | 34818 ft | 437 kts | 107° |
| 2026-05-05 22:21 | 49.97270 | 7.72422 | 34819 ft | 438 kts | 107° |
| 2026-05-05 22:21 | 49.95688 | 7.81492 | 34811 ft | 438 kts | 108° |
| 2026-05-05 22:22 | 49.94079 | 7.90631 | 34816 ft | 437 kts | 108° |
| 2026-05-05 22:22 | 49.92462 | 7.99727 | 34820 ft | 437 kts | 108° |
| 2026-05-05 22:23 | 49.90836 | 8.08849 | 34814 ft | 438 kts | 108° |
| 2026-05-05 22:23 | 49.89224 | 8.17912 | 34807 ft | 439 kts | 108° |
| 2026-05-05 22:24 | 49.87586 | 8.27035 | 34798 ft | 440 kts | 108° |
| 2026-05-05 22:24 | 49.85929 | 8.36187 | 34805 ft | 440 kts | 109° |
| 2026-05-05 22:25 | 49.83382 | 8.44712 | 34818 ft | 434 kts | 127° |
| 2026-05-05 22:25 | 49.79674 | 8.52044 | 34822 ft | 433 kts | 131° |
| 2026-05-05 22:26 | 49.75908 | 8.59335 | 34836 ft | 433 kts | 130° |
| 2026-05-05 22:26 | 49.72170 | 8.66582 | 34846 ft | 434 kts | 131° |
| 2026-05-05 22:27 | 49.68394 | 8.73884 | 34854 ft | 434 kts | 131° |
| 2026-05-05 22:27 | 49.64615 | 8.81160 | 34845 ft | 434 kts | 131° |
| 2026-05-05 22:28 | 49.60852 | 8.88369 | 34837 ft | 434 kts | 131° |
| 2026-05-05 22:28 | 49.57052 | 8.95633 | 34834 ft | 435 kts | 131° |
| 2026-05-05 22:29 | 49.53249 | 9.02881 | 34829 ft | 435 kts | 131° |
| 2026-05-05 22:29 | 49.49430 | 9.10156 | 34838 ft | 436 kts | 131° |
| 2026-05-05 22:30 | 49.45740 | 9.17576 | 34840 ft | 438 kts | 126° |
| 2026-05-05 22:30 | 49.42436 | 9.25373 | 34854 ft | 438 kts | 126° |
| 2026-05-05 22:31 | 49.39099 | 9.33211 | 34862 ft | 438 kts | 126° |
| 2026-05-05 22:31 | 49.35742 | 9.41047 | 34834 ft | 438 kts | 126° |
| 2026-05-05 22:32 | 49.32381 | 9.48875 | 34831 ft | 440 kts | 126° |
| 2026-05-05 22:32 | 49.29009 | 9.56726 | 34842 ft | 441 kts | 126° |
| 2026-05-05 22:33 | 49.25657 | 9.64522 | 34845 ft | 441 kts | 126° |
| 2026-05-05 22:33 | 49.22267 | 9.72354 | 34859 ft | 441 kts | 127° |
| 2026-05-05 22:34 | 49.18866 | 9.80176 | 34839 ft | 441 kts | 127° |
| 2026-05-05 22:34 | 49.15464 | 9.88003 | 34850 ft | 442 kts | 127° |
| 2026-05-05 22:35 | 49.12329 | 9.95192 | 34859 ft | 442 kts | 127° |
| 2026-05-05 22:35 | 49.08898 | 10.03018 | 34856 ft | 443 kts | 127° |
| 2026-05-05 22:36 | 49.05266 | 10.10487 | 34853 ft | 438 kts | 138° |
| 2026-05-05 22:36 | 49.00950 | 10.17047 | 34836 ft | 438 kts | 139° |
| 2026-05-05 22:37 | 48.96620 | 10.23625 | 34844 ft | 439 kts | 139° |
| 2026-05-05 22:37 | 48.92313 | 10.30154 | 34868 ft | 440 kts | 139° |
| 2026-05-05 22:38 | 48.87965 | 10.36711 | 34879 ft | 440 kts | 139° |
| 2026-05-05 22:38 | 48.83616 | 10.43267 | 34893 ft | 441 kts | 139° |
| 2026-05-05 22:39 | 48.79259 | 10.49819 | 34886 ft | 441 kts | 139° |
| 2026-05-05 22:39 | 48.74890 | 10.56370 | 34866 ft | 441 kts | 140° |
| 2026-05-05 22:40 | 48.70540 | 10.62876 | 34873 ft | 442 kts | 140° |
| 2026-05-05 22:40 | 48.66157 | 10.69405 | 34877 ft | 442 kts | 140° |
| 2026-05-05 22:41 | 48.61767 | 10.75928 | 34881 ft | 442 kts | 140° |
| 2026-05-05 22:41 | 48.57554 | 10.82652 | 34875 ft | 446 kts | 134° |
| 2026-05-05 22:42 | 48.53646 | 10.89946 | 34842 ft | 446 kts | 134° |
| 2026-05-05 22:42 | 48.49725 | 10.97236 | 34869 ft | 447 kts | 135° |
| 2026-05-05 22:43 | 48.45820 | 11.04456 | 34878 ft | 447 kts | 135° |
| 2026-05-05 22:43 | 48.41881 | 11.11713 | 34884 ft | 447 kts | 135° |
| 2026-05-05 22:44 | 48.37938 | 11.18966 | 34887 ft | 447 kts | 135° |
| 2026-05-05 22:44 | 48.35971 | 11.22582 | 35107 ft | 445 kts | 135° |
| 2026-05-05 22:44 | 48.34011 | 11.26178 | 35489 ft | 443 kts | 135° |
| 2026-05-05 22:44 | 48.32053 | 11.29760 | 35799 ft | 442 kts | 135° |
| 2026-05-05 22:45 | 48.30099 | 11.33321 | 36079 ft | 441 kts | 135° |
| 2026-05-05 22:45 | 48.28143 | 11.36883 | 36353 ft | 441 kts | 135° |
| 2026-05-05 22:45 | 48.26218 | 11.40386 | 36619 ft | 440 kts | 135° |
| 2026-05-05 22:45 | 48.24269 | 11.43935 | 36866 ft | 440 kts | 134° |
| 2026-05-05 22:46 | 48.22317 | 11.47491 | 36913 ft | 440 kts | 134° |
| 2026-05-05 22:46 | 48.18411 | 11.54590 | 36912 ft | 440 kts | 135° |
| 2026-05-05 22:47 | 48.14510 | 11.61640 | 36895 ft | 439 kts | 135° |
| 2026-05-05 22:47 | 48.10633 | 11.68631 | 36895 ft | 439 kts | 135° |
| 2026-05-05 22:48 | 48.06730 | 11.75674 | 36893 ft | 439 kts | 135° |
| 2026-05-05 22:48 | 48.02853 | 11.82662 | 36888 ft | 439 kts | 135° |
| 2026-05-05 22:49 | 47.98942 | 11.89684 | 36893 ft | 440 kts | 135° |
| 2026-05-05 22:49 | 47.95021 | 11.96688 | 36871 ft | 440 kts | 135° |
| 2026-05-05 22:50 | 47.91099 | 12.03666 | 36895 ft | 440 kts | 135° |
| 2026-05-05 22:50 | 47.87177 | 12.10632 | 36899 ft | 441 kts | 135° |
| 2026-05-05 22:51 | 47.83234 | 12.17629 | 36905 ft | 441 kts | 135° |
| 2026-05-05 22:51 | 47.79273 | 12.24625 | 36914 ft | 441 kts | 135° |
| 2026-05-05 22:52 | 47.75320 | 12.31603 | 36902 ft | 442 kts | 135° |
| 2026-05-05 22:52 | 47.71350 | 12.38586 | 36904 ft | 442 kts | 135° |
| 2026-05-05 22:53 | 47.67400 | 12.45505 | 36912 ft | 442 kts | 136° |
| 2026-05-05 22:53 | 47.63403 | 12.52447 | 36910 ft | 440 kts | 139° |
| 2026-05-05 22:54 | 47.58780 | 12.58249 | 36910 ft | 433 kts | 148° |
| 2026-05-05 22:54 | 47.53983 | 12.63662 | 36885 ft | 433 kts | 148° |
| 2026-05-05 22:55 | 47.49195 | 12.69054 | 36888 ft | 434 kts | 148° |
| 2026-05-05 22:55 | 47.44424 | 12.74427 | 36895 ft | 434 kts | 148° |
| 2026-05-05 22:56 | 47.39611 | 12.79836 | 36904 ft | 434 kts | 148° |
| 2026-05-05 22:56 | 47.34776 | 12.85241 | 36910 ft | 435 kts | 148° |
| 2026-05-05 22:57 | 47.29981 | 12.90601 | 36924 ft | 435 kts | 148° |
| 2026-05-05 22:57 | 47.25518 | 12.95585 | 36888 ft | 435 kts | 148° |
| 2026-05-05 22:58 | 47.20682 | 13.00962 | 36925 ft | 435 kts | 148° |
| 2026-05-05 22:58 | 47.15844 | 13.06334 | 36932 ft | 435 kts | 148° |
| 2026-05-05 22:59 | 47.11019 | 13.11678 | 36948 ft | 436 kts | 148° |
| 2026-05-05 22:59 | 47.06171 | 13.17040 | 36955 ft | 436 kts | 148° |
| 2026-05-05 23:00 | 46.99710 | 13.24163 | 36932 ft | 437 kts | 148° |
| 2026-05-05 23:00 | 46.94835 | 13.29522 | 36939 ft | 438 kts | 148° |
| 2026-05-05 23:01 | 46.89982 | 13.34843 | 36961 ft | 438 kts | 148° |
| 2026-05-05 23:01 | 46.85092 | 13.40191 | 36969 ft | 439 kts | 148° |
| 2026-05-05 23:02 | 46.80195 | 13.45537 | 36982 ft | 439 kts | 148° |
| 2026-05-05 23:02 | 46.75314 | 13.50847 | 36963 ft | 439 kts | 149° |
| 2026-05-05 23:03 | 46.70461 | 13.56124 | 36951 ft | 440 kts | 149° |
| 2026-05-05 23:03 | 46.65521 | 13.61472 | 36948 ft | 442 kts | 149° |
| 2026-05-05 23:04 | 46.60613 | 13.66787 | 36962 ft | 443 kts | 149° |
| 2026-05-05 23:04 | 46.55660 | 13.72140 | 36965 ft | 443 kts | 149° |
| 2026-05-05 23:05 | 46.50697 | 13.77473 | 36978 ft | 443 kts | 149° |
| 2026-05-05 23:05 | 46.45735 | 13.82792 | 36972 ft | 444 kts | 149° |
| 2026-05-05 23:06 | 46.40762 | 13.88123 | 36962 ft | 446 kts | 149° |
| 2026-05-05 23:06 | 46.35814 | 13.93415 | 36966 ft | 447 kts | 150° |
| 2026-05-05 23:07 | 46.30784 | 13.98773 | 36951 ft | 448 kts | 149° |
| 2026-05-05 23:07 | 46.25756 | 14.04127 | 36971 ft | 448 kts | 149° |
| 2026-05-05 23:08 | 46.20722 | 14.09480 | 36992 ft | 449 kts | 150° |
| 2026-05-05 23:08 | 46.15665 | 14.14829 | 36986 ft | 451 kts | 150° |
| 2026-05-05 23:09 | 46.10622 | 14.20148 | 36989 ft | 453 kts | 150° |
| 2026-05-05 23:09 | 46.05526 | 14.25519 | 36984 ft | 454 kts | 149° |
| 2026-05-05 23:10 | 46.00407 | 14.30908 | 37000 ft | 456 kts | 149° |
| 2026-05-05 23:10 | 45.95278 | 14.36291 | 37011 ft | 456 kts | 150° |
| 2026-05-05 23:11 | 45.90154 | 14.41646 | 37013 ft | 458 kts | 150° |
| 2026-05-05 23:11 | 45.84993 | 14.47038 | 37008 ft | 458 kts | 150° |
| 2026-05-05 23:12 | 45.79825 | 14.52416 | 37012 ft | 459 kts | 150° |
| 2026-05-05 23:12 | 45.74706 | 14.57732 | 37015 ft | 459 kts | 150° |
| 2026-05-05 23:13 | 45.69524 | 14.63107 | 37025 ft | 460 kts | 150° |
| 2026-05-05 23:13 | 45.64336 | 14.68475 | 36993 ft | 460 kts | 149° |
| 2026-05-05 23:14 | 45.59181 | 14.73803 | 37007 ft | 460 kts | 149° |
| 2026-05-05 23:14 | 45.53982 | 14.79164 | 37008 ft | 461 kts | 149° |
| 2026-05-05 23:15 | 45.48774 | 14.84507 | 37014 ft | 461 kts | 150° |
| 2026-05-05 23:15 | 45.43581 | 14.89901 | 37019 ft | 463 kts | 148° |
| 2026-05-05 23:16 | 45.38492 | 14.95532 | 36996 ft | 463 kts | 146° |
| 2026-05-05 23:16 | 45.33459 | 15.01200 | 37008 ft | 464 kts | 146° |
| 2026-05-05 23:17 | 45.28365 | 15.06842 | 37014 ft | 464 kts | 147° |
| 2026-05-05 23:17 | 45.23244 | 15.12443 | 37014 ft | 464 kts | 147° |
| 2026-05-05 23:18 | 45.18119 | 15.18014 | 37014 ft | 463 kts | 147° |
| 2026-05-05 23:18 | 45.13002 | 15.23572 | 37012 ft | 464 kts | 148° |
| 2026-05-05 23:19 | 45.07905 | 15.29112 | 37008 ft | 464 kts | 148° |
| 2026-05-05 23:19 | 45.02772 | 15.34693 | 37020 ft | 465 kts | 148° |
| 2026-05-05 23:20 | 44.97636 | 15.40257 | 37022 ft | 465 kts | 148° |
| 2026-05-05 23:20 | 44.92497 | 15.45809 | 36992 ft | 465 kts | 147° |
| 2026-05-05 23:21 | 44.87387 | 15.51307 | 37012 ft | 465 kts | 147° |
| 2026-05-05 23:21 | 44.82235 | 15.56837 | 37028 ft | 465 kts | 147° |
| 2026-05-05 23:22 | 44.77093 | 15.62354 | 37041 ft | 464 kts | 147° |
| 2026-05-05 23:22 | 44.71952 | 15.67862 | 37043 ft | 464 kts | 147° |
| 2026-05-05 23:23 | 44.66831 | 15.73333 | 37024 ft | 465 kts | 147° |
| 2026-05-05 23:23 | 44.61667 | 15.78828 | 37039 ft | 465 kts | 147° |
| 2026-05-05 23:24 | 44.56507 | 15.84310 | 37049 ft | 465 kts | 147° |
| 2026-05-05 23:24 | 44.51375 | 15.89759 | 37055 ft | 465 kts | 147° |
| 2026-05-05 23:25 | 44.46204 | 15.95228 | 37050 ft | 465 kts | 147° |
| 2026-05-05 23:25 | 44.41033 | 16.00684 | 37042 ft | 466 kts | 147° |
| 2026-05-05 23:26 | 44.35850 | 16.06141 | 37059 ft | 466 kts | 147° |
| 2026-05-05 23:26 | 44.30658 | 16.11596 | 37062 ft | 467 kts | 147° |
| 2026-05-05 23:27 | 44.25496 | 16.17004 | 37073 ft | 467 kts | 147° |
| 2026-05-05 23:27 | 44.20297 | 16.22447 | 37051 ft | 467 kts | 147° |
| 2026-05-05 23:28 | 44.15077 | 16.27901 | 37071 ft | 468 kts | 147° |
| 2026-05-05 23:28 | 44.09848 | 16.33345 | 37076 ft | 469 kts | 147° |
| 2026-05-05 23:29 | 44.04619 | 16.38767 | 37087 ft | 469 kts | 147° |
| 2026-05-05 23:29 | 43.99414 | 16.44155 | 37080 ft | 469 kts | 147° |
| 2026-05-05 23:30 | 43.94172 | 16.49580 | 37085 ft | 470 kts | 147° |
| 2026-05-05 23:30 | 43.88915 | 16.55007 | 37097 ft | 470 kts | 147° |
| 2026-05-05 23:31 | 43.83683 | 16.60394 | 37095 ft | 471 kts | 147° |
| 2026-05-05 23:31 | 43.78418 | 16.65809 | 37104 ft | 471 kts | 147° |
| 2026-05-05 23:32 | 43.73150 | 16.71197 | 37089 ft | 471 kts | 147° |
| 2026-05-05 23:32 | 43.67886 | 16.76570 | 37086 ft | 472 kts | 147° |
| 2026-05-05 23:33 | 43.62590 | 16.81976 | 37091 ft | 473 kts | 147° |
| 2026-05-05 23:33 | 43.57283 | 16.87391 | 37087 ft | 474 kts | 147° |
| 2026-05-05 23:34 | 43.51978 | 16.92782 | 37100 ft | 474 kts | 147° |
| 2026-05-05 23:34 | 43.46686 | 16.98137 | 37097 ft | 474 kts | 147° |
| 2026-05-05 23:35 | 43.41359 | 17.03514 | 37105 ft | 474 kts | 147° |
| 2026-05-05 23:35 | 43.36406 | 17.08514 | 37089 ft | 475 kts | 147° |
| 2026-05-05 23:36 | 43.31107 | 17.13859 | 37066 ft | 476 kts | 147° |
| 2026-05-05 23:36 | 43.25753 | 17.19235 | 37067 ft | 477 kts | 147° |
| 2026-05-05 23:37 | 43.20395 | 17.24607 | 37073 ft | 477 kts | 147° |
| 2026-05-05 23:37 | 43.15022 | 17.29993 | 37077 ft | 478 kts | 147° |
| 2026-05-05 23:38 | 43.09649 | 17.35353 | 37087 ft | 478 kts | 147° |
| 2026-05-05 23:38 | 43.04273 | 17.40694 | 37081 ft | 478 kts | 147° |
| 2026-05-05 23:39 | 42.98896 | 17.46030 | 37073 ft | 478 kts | 147° |
| 2026-05-05 23:39 | 42.93546 | 17.51326 | 37074 ft | 478 kts | 147° |
| 2026-05-05 23:40 | 42.88182 | 17.56714 | 37072 ft | 479 kts | 145° |
| 2026-05-05 23:40 | 42.82992 | 17.62453 | 37068 ft | 480 kts | 142° |
| 2026-05-05 23:41 | 42.77866 | 17.68305 | 37074 ft | 480 kts | 142° |
| 2026-05-05 23:41 | 42.72702 | 17.74078 | 37079 ft | 480 kts | 143° |
| 2026-05-05 23:42 | 42.67527 | 17.79741 | 37075 ft | 480 kts | 143° |
| 2026-05-05 23:42 | 42.62306 | 17.85427 | 37078 ft | 481 kts | 143° |
| 2026-05-05 23:43 | 42.57092 | 17.91140 | 37070 ft | 481 kts | 143° |
| 2026-05-05 23:43 | 42.51879 | 17.96843 | 37079 ft | 481 kts | 143° |
| 2026-05-05 23:44 | 42.46721 | 18.02454 | 37084 ft | 481 kts | 143° |
| 2026-05-05 23:44 | 42.41499 | 18.08140 | 37088 ft | 481 kts | 143° |
| 2026-05-05 23:45 | 42.36268 | 18.13809 | 37085 ft | 481 kts | 143° |
| 2026-05-05 23:45 | 42.31034 | 18.19471 | 37091 ft | 481 kts | 143° |
| 2026-05-05 23:46 | 42.25805 | 18.25121 | 37091 ft | 481 kts | 143° |
| 2026-05-05 23:46 | 42.20611 | 18.30725 | 37090 ft | 481 kts | 143° |
| 2026-05-05 23:47 | 42.15375 | 18.36356 | 37093 ft | 481 kts | 143° |
| 2026-05-05 23:47 | 42.10134 | 18.41982 | 37082 ft | 480 kts | 143° |
| 2026-05-05 23:48 | 42.04923 | 18.47559 | 37094 ft | 481 kts | 143° |
| 2026-05-05 23:48 | 41.99676 | 18.53164 | 37091 ft | 481 kts | 143° |
| 2026-05-05 23:49 | 41.94420 | 18.58763 | 37094 ft | 481 kts | 143° |
| 2026-05-05 23:49 | 41.89166 | 18.64355 | 37081 ft | 482 kts | 143° |
| 2026-05-05 23:50 | 41.84800 | 18.68990 | 37082 ft | 481 kts | 143° |
| 2026-05-05 23:50 | 41.78683 | 18.75473 | 37096 ft | 481 kts | 143° |
| 2026-05-05 23:51 | 41.74304 | 18.80091 | 37103 ft | 481 kts | 143° |
| 2026-05-05 23:51 | 41.69034 | 18.85645 | 37090 ft | 482 kts | 143° |
| 2026-05-05 23:52 | 41.63760 | 18.91206 | 37079 ft | 482 kts | 143° |
| 2026-05-05 23:52 | 41.58480 | 18.96749 | 37088 ft | 482 kts | 143° |
| 2026-05-05 23:53 | 41.53229 | 19.02252 | 37103 ft | 482 kts | 143° |
| 2026-05-05 23:53 | 41.47929 | 19.07764 | 37112 ft | 482 kts | 147° |
| 2026-05-05 23:54 | 41.42036 | 19.11866 | 37100 ft | 476 kts | 163° |
| 2026-05-05 23:54 | 41.35803 | 19.14907 | 37088 ft | 477 kts | 162° |
| 2026-05-05 23:55 | 41.29606 | 19.17932 | 37093 ft | 477 kts | 162° |
| 2026-05-05 23:55 | 41.23341 | 19.20985 | 37089 ft | 478 kts | 162° |
| 2026-05-05 23:56 | 41.17125 | 19.24005 | 37088 ft | 478 kts | 162° |
| 2026-05-05 23:56 | 41.10854 | 19.27034 | 37096 ft | 478 kts | 162° |
| 2026-05-05 23:57 | 41.04596 | 19.30060 | 37097 ft | 479 kts | 162° |
| 2026-05-05 23:57 | 40.98375 | 19.33072 | 37093 ft | 478 kts | 162° |
| 2026-05-05 23:58 | 40.92112 | 19.36093 | 37094 ft | 478 kts | 162° |
| 2026-05-05 23:58 | 40.85851 | 19.39106 | 37096 ft | 478 kts | 162° |
| 2026-05-05 23:59 | 40.79590 | 19.42103 | 37107 ft | 478 kts | 162° |
| 2026-05-05 23:59 | 40.73330 | 19.45093 | 37093 ft | 478 kts | 162° |
| 2026-05-06 00:00 | 40.67075 | 19.48087 | 37089 ft | 478 kts | 162° |
| 2026-05-06 00:00 | 40.60847 | 19.51065 | 37095 ft | 479 kts | 162° |
| 2026-05-06 00:01 | 40.54564 | 19.54052 | 36874 ft | 480 kts | 162° |
| 2026-05-06 00:01 | 40.51416 | 19.55549 | 36610 ft | 480 kts | 162° |
| 2026-05-06 00:01 | 40.48274 | 19.57042 | 36343 ft | 481 kts | 162° |
| 2026-05-06 00:02 | 40.45113 | 19.58542 | 36085 ft | 482 kts | 162° |
| 2026-05-06 00:02 | 40.41953 | 19.60037 | 35833 ft | 483 kts | 163° |
| 2026-05-06 00:02 | 40.38816 | 19.61522 | 35583 ft | 484 kts | 163° |
| 2026-05-06 00:02 | 40.35640 | 19.63026 | 35335 ft | 485 kts | 163° |
| 2026-05-06 00:03 | 40.32465 | 19.64527 | 35093 ft | 486 kts | 163° |
| 2026-05-06 00:03 | 40.29279 | 19.66033 | 34843 ft | 487 kts | 163° |
| 2026-05-06 00:03 | 40.26082 | 19.67542 | 34591 ft | 488 kts | 163° |
| 2026-05-06 00:03 | 40.22878 | 19.69051 | 34062 ft | 491 kts | 163° |
| 2026-05-06 00:04 | 40.19619 | 19.70580 | 32984 ft | 500 kts | 163° |
| 2026-05-06 00:04 | 40.16332 | 19.72119 | 32065 ft | 504 kts | 163° |
| 2026-05-06 00:04 | 40.13038 | 19.73666 | 31492 ft | 500 kts | 163° |
| 2026-05-06 00:04 | 40.09766 | 19.75208 | 30860 ft | 499 kts | 163° |
| 2026-05-06 00:05 | 40.03257 | 19.78269 | 29539 ft | 493 kts | 163° |
| 2026-05-06 00:05 | 40.00037 | 19.79773 | 28932 ft | 488 kts | 163° |
| 2026-05-06 00:05 | 39.96857 | 19.81255 | 28306 ft | 484 kts | 163° |
| 2026-05-06 00:06 | 39.93734 | 19.82709 | 27707 ft | 480 kts | 163° |
| 2026-05-06 00:06 | 39.90607 | 19.84162 | 27130 ft | 475 kts | 163° |
| 2026-05-06 00:06 | 39.87510 | 19.85627 | 26566 ft | 470 kts | 162° |
| 2026-05-06 00:06 | 39.84464 | 19.87130 | 26013 ft | 465 kts | 161° |
| 2026-05-06 00:07 | 39.81463 | 19.88658 | 25455 ft | 461 kts | 161° |
| 2026-05-06 00:07 | 39.78493 | 19.90189 | 24944 ft | 456 kts | 161° |
| 2026-05-06 00:07 | 39.75560 | 19.91697 | 24426 ft | 451 kts | 161° |
| 2026-05-06 00:07 | 39.72657 | 19.93179 | 23927 ft | 446 kts | 161° |
| 2026-05-06 00:08 | 39.69777 | 19.94634 | 23401 ft | 441 kts | 162° |
| 2026-05-06 00:08 | 39.66929 | 19.96056 | 22925 ft | 434 kts | 162° |
| 2026-05-06 00:08 | 39.64129 | 19.97445 | 22455 ft | 428 kts | 162° |
| 2026-05-06 00:08 | 39.61363 | 19.98813 | 21984 ft | 423 kts | 162° |
| 2026-05-06 00:09 | 39.58622 | 20.00172 | 21524 ft | 418 kts | 162° |
| 2026-05-06 00:09 | 39.55948 | 20.01500 | 21034 ft | 415 kts | 162° |
| 2026-05-06 00:09 | 39.53261 | 20.02840 | 20572 ft | 411 kts | 161° |
| 2026-05-06 00:09 | 39.50602 | 20.04167 | 20074 ft | 408 kts | 161° |
| 2026-05-06 00:10 | 39.47970 | 20.05483 | 19585 ft | 404 kts | 161° |
| 2026-05-06 00:10 | 39.45369 | 20.06866 | 19085 ft | 403 kts | 156° |
| 2026-05-06 00:10 | 39.42972 | 20.08753 | 18591 ft | 403 kts | 144° |
| 2026-05-06 00:10 | 39.40815 | 20.10985 | 18047 ft | 401 kts | 142° |
| 2026-05-06 00:11 | 39.38654 | 20.13236 | 17539 ft | 396 kts | 143° |
| 2026-05-06 00:11 | 39.36517 | 20.15455 | 17032 ft | 392 kts | 142° |
| 2026-05-06 00:11 | 39.34368 | 20.17680 | 16523 ft | 388 kts | 143° |
| 2026-05-06 00:11 | 39.32291 | 20.19823 | 16021 ft | 385 kts | 143° |
| 2026-05-06 00:12 | 39.30203 | 20.21972 | 15527 ft | 381 kts | 143° |
| 2026-05-06 00:12 | 39.28135 | 20.24103 | 15030 ft | 379 kts | 143° |
| 2026-05-06 00:12 | 39.26080 | 20.26219 | 14533 ft | 376 kts | 143° |
| 2026-05-06 00:12 | 39.24044 | 20.28315 | 14033 ft | 373 kts | 143° |
| 2026-05-06 00:13 | 39.22017 | 20.30400 | 13497 ft | 370 kts | 143° |
| 2026-05-06 00:13 | 39.20010 | 20.32465 | 13002 ft | 366 kts | 143° |
| 2026-05-06 00:13 | 39.18029 | 20.34503 | 12519 ft | 361 kts | 143° |
| 2026-05-06 00:13 | 39.16081 | 20.36470 | 12041 ft | 357 kts | 147° |
| 2026-05-06 00:14 | 39.13851 | 20.37764 | 11503 ft | 350 kts | 170° |
| 2026-05-06 00:14 | 39.11454 | 20.37822 | 10978 ft | 343 kts | 193° |
| 2026-05-06 00:14 | 39.09257 | 20.36739 | 10571 ft | 335 kts | 210° |
| 2026-05-06 00:14 | 39.07207 | 20.35418 | 10433 ft | 322 kts | 206° |
| 2026-05-06 00:15 | 39.05199 | 20.34330 | 10319 ft | 312 kts | 202° |
| 2026-05-06 00:15 | 39.03186 | 20.33425 | 10200 ft | 302 kts | 199° |
| 2026-05-06 00:15 | 39.01197 | 20.32698 | 10047 ft | 293 kts | 195° |
| 2026-05-06 00:15 | 38.99207 | 20.32131 | 9720 ft | 292 kts | 192° |
| 2026-05-06 00:16 | 38.97199 | 20.31724 | 9353 ft | 291 kts | 188° |
| 2026-05-06 00:16 | 38.95181 | 20.31470 | 9010 ft | 290 kts | 185° |
| 2026-05-06 00:16 | 38.93169 | 20.31366 | 8675 ft | 289 kts | 182° |
| 2026-05-06 00:16 | 38.91154 | 20.31405 | 8347 ft | 288 kts | 179° |
| 2026-05-06 00:17 | 38.89157 | 20.31589 | 8009 ft | 287 kts | 175° |
| 2026-05-06 00:17 | 38.87181 | 20.31919 | 7680 ft | 286 kts | 172° |
| 2026-05-06 00:17 | 38.85249 | 20.32388 | 7366 ft | 285 kts | 169° |
| 2026-05-06 00:17 | 38.83329 | 20.32991 | 7050 ft | 283 kts | 166° |
| 2026-05-06 00:18 | 38.81549 | 20.34030 | 6739 ft | 283 kts | 141° |
| 2026-05-06 00:18 | 38.80384 | 20.36034 | 6428 ft | 283 kts | 111° |
| 2026-05-06 00:18 | 38.80180 | 20.38511 | 6083 ft | 282 kts | 78° |
| 2026-05-06 00:18 | 38.81008 | 20.40757 | 5725 ft | 281 kts | 54° |
| 2026-05-06 00:19 | 38.82012 | 20.42948 | 5051 ft | 293 kts | 65° |
| 2026-05-06 00:19 | 38.82762 | 20.45405 | 4651 ft | 293 kts | 69° |
| 2026-05-06 00:19 | 38.83489 | 20.47822 | 4367 ft | 289 kts | 68° |
| 2026-05-06 00:19 | 38.84244 | 20.50202 | 4002 ft | 288 kts | 67° |
| 2026-05-06 00:20 | 38.85001 | 20.52572 | 3637 ft | 287 kts | 67° |
| 2026-05-06 00:20 | 38.85763 | 20.54970 | 3125 ft | 291 kts | 67° |
| 2026-05-06 00:20 | 38.86516 | 20.57349 | 2657 ft | 288 kts | 68° |
| 2026-05-06 00:20 | 38.87250 | 20.59669 | 2307 ft | 273 kts | 67° |
| 2026-05-06 00:21 | 38.87945 | 20.61869 | 1986 ft | 256 kts | 68° |
| 2026-05-06 00:21 | 38.88581 | 20.63880 | 1706 ft | 230 kts | 68° |
| 2026-05-06 00:21 | 38.89155 | 20.65699 | 1426 ft | 210 kts | 68° |
| 2026-05-06 00:21 | 38.89688 | 20.67387 | 1189 ft | 195 kts | 67° |